createdAt,value
2018-06-30T00:08:53.946Z,19.5
2018-06-30T00:18:53.166Z,19.5
2018-06-30T00:28:52.393Z,19.6
2018-06-30T00:38:51.620Z,19.6
2018-06-30T00:48:50.844Z,19.6
2018-06-30T00:58:50.065Z,19.6
2018-06-30T01:08:49.289Z,19.6
2018-06-30T01:18:48.513Z,19.7
2018-06-30T01:28:47.737Z,19.7
2018-06-30T01:38:46.964Z,19.7
2018-06-30T01:48:46.188Z,19.8
2018-06-30T01:58:45.412Z,19.8
2018-06-30T02:08:44.645Z,19.8
2018-06-30T02:18:43.862Z,19.8
2018-06-30T02:28:43.125Z,19.8
2018-06-30T02:38:42.317Z,19.8
2018-06-30T02:48:41.535Z,19.8
2018-06-30T02:58:40.758Z,19.9
2018-06-30T03:08:39.983Z,19.9
2018-06-30T03:18:39.219Z,19.9
2018-06-30T03:28:38.432Z,19.9
2018-06-30T03:38:37.718Z,20
2018-06-30T03:48:36.881Z,20.1
2018-06-30T03:58:36.105Z,20
2018-06-30T04:08:35.330Z,20.1
2018-06-30T04:18:34.564Z,20.1
2018-06-30T04:28:33.779Z,20.1
2018-06-30T04:38:33.001Z,20.1
2018-06-30T04:48:32.224Z,20.1
2018-06-30T04:58:31.455Z,20.1
2018-06-30T05:08:30.684Z,20.2
2018-06-30T05:18:29.900Z,20.2
2018-06-30T05:28:29.124Z,20.2
2018-06-30T05:38:28.349Z,20.1
2018-06-30T05:48:27.574Z,19.9
2018-06-30T05:58:26.801Z,19.6
2018-06-30T06:08:26.026Z,19.6
2018-06-30T06:18:25.249Z,19.5
2018-06-30T06:28:24.469Z,19.6
2018-06-30T06:38:23.697Z,19.6
2018-06-30T06:48:22.921Z,19.8
2018-06-30T06:58:22.140Z,19.9
2018-06-30T07:08:21.375Z,19.9
2018-06-30T07:18:20.596Z,20.1
2018-06-30T07:28:19.818Z,20.3
2018-06-30T07:38:19.043Z,20.5
2018-06-30T07:48:18.259Z,20.6
2018-06-30T07:58:17.487Z,20.8
2018-06-30T08:08:16.713Z,20.9
2018-06-30T08:18:15.947Z,21.1
2018-06-30T08:28:15.156Z,21.2
2018-06-30T08:38:14.385Z,21.4
2018-06-30T08:48:13.606Z,21.6
2018-06-30T08:58:12.838Z,21.7
2018-06-30T09:08:12.060Z,21.8
2018-06-30T09:18:11.288Z,21.9
2018-06-30T09:28:10.510Z,22
2018-06-30T09:38:09.737Z,22.1
2018-06-30T09:48:08.957Z,22.1
2018-06-30T09:58:08.190Z,22.2
2018-06-30T10:08:07.406Z,22.2
2018-06-30T10:18:06.639Z,22.3
2018-06-30T10:28:05.864Z,22.3
2018-06-30T10:38:05.085Z,22.4
2018-06-30T10:48:04.310Z,22.4
2018-06-30T10:58:03.530Z,22.5
2018-06-30T11:08:02.757Z,22.6
2018-06-30T11:18:01.986Z,22.6
2018-06-30T11:28:01.210Z,22.6
2018-06-30T11:38:00.430Z,22.6
2018-06-30T11:47:59.654Z,22.6
2018-06-30T11:57:58.883Z,22.7
2018-06-30T12:07:58.114Z,22.7
2018-06-30T12:17:57.329Z,22.8
2018-06-30T12:27:56.557Z,22.8
2018-06-30T12:37:55.778Z,22.8
2018-06-30T12:47:55.004Z,22.8
2018-06-30T12:57:54.235Z,22.8
2018-06-30T13:07:53.463Z,22.8
2018-06-30T13:17:52.683Z,22.8
2018-06-30T13:27:51.911Z,22.8
2018-06-30T13:37:51.140Z,22.9
2018-06-30T13:47:50.361Z,22.8
2018-06-30T13:57:49.594Z,22.9
2018-06-30T14:07:48.812Z,22.9
2018-06-30T14:17:48.039Z,22.9
2018-06-30T14:27:47.260Z,22.9
2018-06-30T14:37:46.513Z,22.9
2018-06-30T14:47:45.714Z,22.9
2018-06-30T14:57:44.945Z,22.9
2018-06-30T15:07:44.164Z,22.9
2018-06-30T15:17:43.389Z,22.9
2018-06-30T15:27:42.625Z,22.8
2018-06-30T15:37:41.841Z,22.6
2018-06-30T15:47:41.073Z,22.6
2018-06-30T15:57:40.300Z,22.6
2018-06-30T16:07:39.572Z,22.6
2018-06-30T16:17:38.749Z,22.6
2018-06-30T16:27:37.986Z,22.6
2018-06-30T16:37:37.204Z,22.6
2018-06-30T16:47:36.438Z,22.6
2018-06-30T16:57:35.661Z,22.5
2018-06-30T17:07:34.891Z,22.5
2018-06-30T17:17:34.117Z,22.4
2018-06-30T17:27:33.346Z,22.3
2018-06-30T17:37:32.572Z,22.2
2018-06-30T17:47:31.805Z,22.1
2018-06-30T17:57:31.029Z,22.1
2018-06-30T18:07:30.252Z,22
2018-06-30T18:17:29.483Z,21.9
2018-06-30T18:27:28.756Z,21.8
2018-06-30T18:37:27.934Z,21.7
2018-06-30T18:47:27.162Z,21.6
2018-06-30T18:57:26.392Z,21.7
2018-06-30T19:07:25.627Z,21.8
2018-06-30T19:17:24.851Z,21.9
2018-06-30T19:27:24.074Z,21.9
2018-06-30T19:37:23.302Z,21.9
2018-06-30T19:47:22.588Z,21.8
2018-06-30T19:57:21.764Z,21.8
2018-06-30T20:07:20.992Z,21.8
2018-06-30T20:17:20.204Z,21.8
2018-06-30T20:27:19.433Z,21.6
2018-06-30T20:37:18.653Z,21.6
2018-06-30T20:47:17.879Z,21.6
2018-06-30T20:57:17.116Z,21.6
2018-06-30T21:07:16.332Z,21.6
2018-06-30T21:17:15.566Z,21.6
2018-06-30T21:27:14.788Z,21.6
2018-06-30T21:37:14.014Z,21.5
2018-06-30T21:47:13.240Z,21.5
2018-06-30T21:57:12.462Z,21.4
2018-06-30T22:07:11.697Z,21.4
2018-06-30T22:17:10.913Z,21.4
2018-06-30T22:27:10.138Z,21.4
2018-06-30T22:37:09.364Z,21.4
2018-06-30T22:47:08.652Z,21.4
2018-06-30T22:57:07.814Z,21.3
2018-06-30T23:07:07.049Z,21.3
2018-06-30T23:17:06.272Z,21.2
2018-06-30T23:27:05.498Z,21.2
2018-06-30T23:37:04.716Z,21.1
2018-06-30T23:47:03.945Z,21.1
2018-06-30T23:57:03.173Z,21
